createdAt,value
2023-03-23T15:58:44.132Z,97646.55
2023-03-23T16:01:29.738Z,97651.05
2023-03-23T16:04:07.870Z,97657.39
2023-03-23T16:06:37.563Z,97658.55
2023-03-23T16:09:07.024Z,97656.35
2023-03-23T16:11:35.280Z,97659.12
2023-03-23T16:14:03.710Z,97655.70
2023-03-23T16:16:50.480Z,97655.04
2023-03-23T16:19:24.195Z,97662.80
2023-03-23T16:21:52.316Z,97668.05
2023-03-23T16:24:20.567Z,97675.88
2023-03-23T16:26:48.825Z,97680.21
2023-03-23T16:29:33.903Z,97679.86
2023-03-23T16:32:06.795Z,97680.45
2023-03-23T16:34:35.694Z,97675.88
2023-03-23T16:37:04.113Z,97675.42
2023-03-23T16:39:32.263Z,97672.64
2023-03-23T16:42:00.455Z,97672.34
2023-03-23T16:44:28.629Z,97677.75
2023-03-23T16:46:56.800Z,97677.42
2023-03-23T16:49:24.946Z,97679.72
2023-03-23T16:51:53.096Z,97684.77
2023-03-23T16:54:21.428Z,97685.63
2023-03-23T16:56:49.642Z,97689.33
2023-03-23T16:59:17.836Z,97687.38
2023-03-23T17:01:45.969Z,97690.52
2023-03-23T17:04:15.945Z,97690.61
2023-03-23T17:06:44.312Z,97691.98
2023-03-23T17:09:12.511Z,97692.05
2023-03-23T17:11:40.856Z,97694.83
2023-03-23T17:14:08.965Z,97698.64
2023-03-23T17:16:37.185Z,97703.17
2023-03-23T17:19:07.181Z,97708.70
2023-03-23T17:21:36.219Z,97709.77
2023-03-23T17:24:04.447Z,97710.95
2023-03-23T17:26:32.868Z,97715.30
2023-03-23T17:29:01.016Z,97719.79
2023-03-23T17:31:29.282Z,97729.42
2023-03-23T17:33:57.855Z,97729.70
2023-03-23T17:36:26.301Z,97734.92
2023-03-23T17:38:54.530Z,97735.58
2023-03-23T17:41:22.668Z,97738.34
2023-03-23T17:43:50.995Z,97742.21
2023-03-23T17:46:19.159Z,97743.84
2023-03-23T17:48:47.355Z,97740.95
2023-03-23T17:51:15.534Z,97745.09
2023-03-23T17:53:43.752Z,97750.17
2023-03-23T17:56:14.136Z,97753.06
2023-03-23T17:58:42.835Z,97753.92
2023-03-23T18:01:11.027Z,97755.44
2023-03-23T18:03:39.854Z,97755.48
2023-03-23T18:06:09.353Z,97753.08
2023-03-23T18:08:38.352Z,97748.89
2023-03-23T18:11:07.634Z,97747.09
2023-03-23T18:13:37.495Z,97740.21
2023-03-23T18:16:07.325Z,97735.52
2023-03-23T18:18:36.110Z,97732.51
2023-03-23T18:21:08.860Z,97729.35
2023-03-23T18:23:46.047Z,97728.16
2023-03-23T18:26:19.063Z,97727.25
2023-03-23T18:28:48.143Z,97732.97
2023-03-23T18:31:17.730Z,97734.89
2023-03-23T18:33:49.509Z,97736.33
2023-03-23T18:36:20.720Z,97744.71
2023-03-23T18:38:49.706Z,97747.49
2023-03-23T18:41:18.736Z,97750.96
2023-03-23T18:43:46.895Z,97758.66
2023-03-23T18:46:15.659Z,97763.11
2023-03-23T18:48:43.945Z,97766.35
2023-03-23T18:51:12.611Z,97771.06
2023-03-23T18:53:40.984Z,97773.66
2023-03-23T18:56:13.419Z,97769.95
2023-03-23T18:58:42.109Z,97765.75
2023-03-23T19:01:14.885Z,97772.34
2023-03-23T19:03:43.664Z,97776.35
2023-03-23T19:06:19.457Z,97783.85
2023-03-23T19:08:49.544Z,97784.95
2023-03-23T19:11:19.304Z,97778.94
2023-03-23T19:14:00.638Z,97773.52
2023-03-23T19:16:32.980Z,97760.52
2023-03-23T19:19:03.605Z,97762.42
2023-03-23T19:21:32.605Z,97772.02
2023-03-23T19:24:02.056Z,97777.52
2023-03-23T19:26:38.324Z,97773.67
2023-03-23T19:31:46.276Z,97780.00
2023-03-23T19:34:16.833Z,97781.31
2023-03-23T19:36:53.678Z,97781.67
2023-03-23T19:39:25.078Z,97783.70
2023-03-23T19:41:53.517Z,97788.41
2023-03-23T19:44:21.870Z,97788.04
2023-03-23T19:46:50.138Z,97794.50
2023-03-23T19:49:18.363Z,97791.60
2023-03-23T19:51:46.497Z,97789.46
2023-03-23T19:54:14.649Z,97787.54
2023-03-23T19:56:43.309Z,97788.17
2023-03-23T19:59:14.955Z,97791.08
2023-03-23T20:01:44.365Z,97790.83
2023-03-23T20:04:12.935Z,97793.85
2023-03-23T20:06:41.188Z,97794.48
2023-03-23T20:09:09.751Z,97794.16
2023-03-23T20:11:38.591Z,97796.66
2023-03-23T20:14:07.391Z,97799.91
2023-03-23T20:16:35.712Z,97801.35
2023-03-23T20:19:05.326Z,97800.64
2023-03-23T20:21:34.128Z,97802.11
2023-03-23T20:24:03.484Z,97800.54
2023-03-23T20:26:36.848Z,97801.28
2023-03-23T20:29:06.977Z,97803.00
2023-03-23T20:31:39.486Z,97803.77
2023-03-23T20:34:11.453Z,97802.75
2023-03-23T20:36:45.337Z,97802.02
2023-03-23T20:39:23.478Z,97806.44
2023-03-23T20:41:58.742Z,97799.09
2023-03-23T20:44:31.050Z,97806.21
2023-03-23T20:46:59.786Z,97808.23
2023-03-23T20:49:30.398Z,97810.86
2023-03-23T20:51:58.699Z,97810.41
2023-03-23T20:54:27.787Z,97810.41
2023-03-23T20:56:58.485Z,97808.46
2023-03-23T20:59:28.027Z,97809.48
2023-03-23T21:01:56.323Z,97810.72
2023-03-23T21:04:27.513Z,97811.49
2023-03-23T21:06:57.091Z,97814.52
2023-03-23T21:09:26.085Z,97819.04
2023-03-23T21:11:55.039Z,97818.98
2023-03-23T21:14:23.188Z,97825.52
2023-03-23T21:16:51.459Z,97826.77
2023-03-23T21:19:20.630Z,97829.33
2023-03-23T21:21:56.736Z,97829.91
2023-03-23T21:24:31.357Z,97828.56
2023-03-23T21:27:03.038Z,97825.09
2023-03-23T21:29:31.883Z,97826.52
2023-03-23T21:32:08.162Z,97826.33
2023-03-23T21:34:37.776Z,97832.11
2023-03-23T21:37:06.150Z,97833.91
2023-03-23T21:39:34.731Z,97832.29
2023-03-23T21:42:05.328Z,97829.66
2023-03-23T21:44:35.012Z,97829.67
2023-03-23T21:47:04.094Z,97828.98
2023-03-23T21:49:32.470Z,97828.63
2023-03-23T21:52:02.053Z,97832.27
2023-03-23T21:54:31.733Z,97834.91
2023-03-23T21:57:00.449Z,97838.77
2023-03-23T21:59:28.662Z,97842.68
2023-03-23T22:01:58.235Z,97847.59
2023-03-23T22:04:28.171Z,97844.95
2023-03-23T22:06:56.867Z,97849.32
2023-03-23T22:09:25.298Z,97852.52
2023-03-23T22:11:53.806Z,97858.14
2023-03-23T22:14:23.817Z,97853.34
2023-03-23T22:16:52.415Z,97853.41
2023-03-23T22:19:21.120Z,97857.56
2023-03-23T22:21:49.426Z,97857.83
2023-03-23T22:24:19.045Z,97857.57
2023-03-23T22:26:48.423Z,97851.80
2023-03-23T22:29:17.231Z,97844.40
2023-03-23T22:31:46.194Z,97836.48
2023-03-23T22:34:15.014Z,97835.33
2023-03-23T22:36:43.348Z,97833.71
2023-03-23T22:39:11.939Z,97831.62
2023-03-23T22:41:42.258Z,97830.17
2023-03-23T22:44:20.764Z,97829.55
2023-03-23T22:46:49.014Z,97835.17
2023-03-23T22:49:17.270Z,97829.63
2023-03-23T22:51:46.819Z,97827.45
2023-03-23T22:54:15.652Z,97830.69
2023-03-23T22:56:44.215Z,97829.64
2023-03-23T22:59:13.441Z,97827.38
2023-03-23T23:01:41.919Z,97828.33
2023-03-23T23:04:10.185Z,97826.84
2023-03-23T23:06:41.829Z,97822.16
2023-03-23T23:09:10.723Z,97819.73
2023-03-23T23:11:39.412Z,97819.30
2023-03-23T23:14:07.626Z,97818.19
2023-03-23T23:16:35.901Z,97817.23
2023-03-23T23:19:04.951Z,97817.41
2023-03-23T23:21:33.168Z,97815.84
2023-03-23T23:24:01.919Z,97818.55
2023-03-23T23:26:30.828Z,97819.64
2023-03-23T23:29:01.088Z,97817.34
2023-03-23T23:31:33.730Z,97821.44
2023-03-23T23:34:03.728Z,97823.98
2023-03-23T23:36:32.397Z,97827.44
2023-03-23T23:39:02.335Z,97829.73
2023-03-23T23:41:30.813Z,97834.25
2023-03-23T23:43:59.841Z,97833.43
2023-03-23T23:46:31.091Z,97834.72
2023-03-23T23:49:01.419Z,97828.19
2023-03-23T23:51:30.295Z,97830.60
2023-03-23T23:53:59.192Z,97829.75
2023-03-23T23:56:28.947Z,97831.21
2023-03-23T23:58:58.519Z,97829.59
